Time;durP1;ratioP1;P1;durP2;ratioP2;P2;SDS_P1;SDS_P2;PMS_P1;PMS_P2;Temp;Humidity;BMP_temperature;BMP_pressure;BME280_temperature;BME280_humidity;BME280_pressure;Samples;Min_cycle;Max_cycle;Signal;HPM_P1;HPM_P2
2020/12/11 00:00:59;;;;;;;95.90;30.85;;;3.60;99.90;;;;;;5015529;28;20573;-72
2020/12/11 00:03:25;;;;;;;93.00;32.03;;;3.60;99.90;;;;;;5033099;28;20030;-72
2020/12/11 00:05:50;;;;;;;97.15;32.47;;;3.60;99.90;;;;;;5033164;28;20040;-72
2020/12/11 00:08:16;;;;;;;91.28;30.63;;;3.60;99.90;;;;;;5032689;28;20100;-72
2020/12/11 00:10:41;;;;;;;98.68;31.75;;;3.70;99.90;;;;;;5015262;28;20060;-72
2020/12/11 00:13:07;;;;;;;90.68;30.63;;;3.70;99.90;;;;;;5015115;28;20026;-72
2020/12/11 00:15:32;;;;;;;105.43;33.60;;;3.60;99.90;;;;;;5032987;28;20426;-72
2020/12/11 00:17:58;;;;;;;99.80;33.40;;;3.60;99.90;;;;;;5032575;28;20464;-72
2020/12/11 00:20:23;;;;;;;96.05;33.10;;;3.60;99.90;;;;;;5032909;28;20491;-72
2020/12/11 00:22:49;;;;;;;89.53;31.08;;;3.70;99.90;;;;;;5032837;28;20631;-73
2020/12/11 00:25:14;;;;;;;98.30;33.72;;;3.60;99.90;;;;;;5032808;28;20034;-72
2020/12/11 00:27:40;;;;;;;89.53;32.08;;;3.60;99.90;;;;;;5032495;28;20037;-72
2020/12/11 00:30:05;;;;;;;90.40;31.83;;;3.60;99.90;;;;;;5032765;28;20025;-72
2020/12/11 00:32:31;;;;;;;92.10;33.63;;;3.60;99.90;;;;;;5031410;28;20037;-72
2020/12/11 00:34:56;;;;;;;91.57;32.45;;;3.60;99.90;;;;;;5032648;28;20021;-72
2020/12/11 00:37:22;;;;;;;85.80;32.60;;;3.60;99.90;;;;;;5031002;28;20029;-72
2020/12/11 00:39:48;;;;;;;81.30;30.02;;;3.60;99.90;;;;;;5014802;28;20022;-72
2020/12/11 00:42:20;;;;;;;86.53;29.27;;;3.60;99.90;;;;;;5032491;28;20476;-72
2020/12/11 00:44:47;;;;;;;92.25;32.03;;;3.60;99.90;;;;;;5032796;28;20503;-72
2020/12/11 00:47:13;;;;;;;91.43;30.25;;;3.60;99.90;;;;;;5032118;28;20022;-72
2020/12/11 00:49:38;;;;;;;94.15;30.85;;;3.70;99.90;;;;;;5032380;28;20022;-72
2020/12/11 00:52:04;;;;;;;88.45;31.05;;;3.60;99.90;;;;;;5032403;28;20083;-72
2020/12/11 00:54:29;;;;;;;82.22;28.98;;;3.70;99.90;;;;;;5032156;28;20029;-72
2020/12/11 00:56:55;;;;;;;82.38;29.95;;;3.60;99.90;;;;;;5014253;28;20025;-73
2020/12/11 00:59:20;;;;;;;81.70;28.67;;;3.70;99.90;;;;;;5032259;28;20548;-72
2020/12/11 01:01:46;;;;;;;93.25;29.75;;;3.70;99.90;;;;;;5030954;28;20021;-72
2020/12/11 01:04:11;;;;;;;85.22;30.50;;;3.70;99.90;;;;;;5014477;28;20029;-72
2020/12/11 01:06:37;;;;;;;75.05;27.45;;;3.60;99.90;;;;;;5014063;28;20040;-72
2020/12/11 01:09:04;;;;;;;82.57;28.27;;;3.70;99.90;;;;;;5032390;28;20116;-72
2020/12/11 01:11:29;;;;;;;80.78;27.42;;;3.60;99.90;;;;;;5014257;28;20598;-73
2020/12/11 01:13:55;;;;;;;78.35;28.30;;;3.60;99.90;;;;;;5031980;28;20108;-73
2020/12/11 01:16:20;;;;;;;83.28;31.58;;;3.70;99.90;;;;;;5013969;28;20029;-73
2020/12/11 01:18:46;;;;;;;83.28;30.17;;;3.70;99.90;;;;;;5031725;28;20108;-72
2020/12/11 01:21:12;;;;;;;76.03;29.85;;;3.70;99.90;;;;;;5014073;28;20472;-73
2020/12/11 01:23:37;;;;;;;78.00;29.27;;;3.70;99.90;;;;;;5031199;28;20040;-73
2020/12/11 01:26:06;;;;;;;78.25;27.63;;;3.70;99.90;;;;;;5031560;28;20032;-73
2020/12/11 01:28:31;;;;;;;76.93;27.55;;;3.70;99.90;;;;;;5031537;28;20045;-74
2020/12/11 01:30:57;;;;;;;78.20;28.77;;;3.80;99.90;;;;;;5031574;28;20057;-72
2020/12/11 01:33:22;;;;;;;79.25;28.35;;;3.90;99.90;;;;;;5031612;28;20032;-73
2020/12/11 01:35:48;;;;;;;82.53;28.98;;;3.90;99.90;;;;;;5031449;28;20031;-72
2020/12/11 01:38:13;;;;;;;76.28;28.55;;;3.90;99.90;;;;;;5031091;28;20030;-73
2020/12/11 01:40:39;;;;;;;83.22;29.17;;;3.70;99.90;;;;;;5031396;28;20029;-72
2020/12/11 01:43:04;;;;;;;80.40;28.77;;;3.60;99.90;;;;;;5031399;28;20025;-72
2020/12/11 01:45:30;;;;;;;86.03;30.77;;;3.60;99.90;;;;;;5031267;28;20021;-72
2020/12/11 01:47:57;;;;;;;82.53;29.73;;;3.50;99.90;;;;;;5030997;28;20033;-73
2020/12/11 01:50:22;;;;;;;79.97;29.10;;;3.50;99.90;;;;;;5013540;28;20036;-73
2020/12/11 01:52:50;;;;;;;80.43;27.33;;;3.50;99.90;;;;;;5031032;28;20029;-72
2020/12/11 01:55:16;;;;;;;68.53;27.70;;;3.50;99.90;;;;;;5013472;28;20029;-73
2020/12/11 01:57:58;;;;;;;81.40;28.92;;;3.50;99.90;;;;;;5030796;28;20175;-72
2020/12/11 02:00:24;;;;;;;73.63;27.00;;;3.60;99.90;;;;;;5031151;28;20028;-73
2020/12/11 02:03:03;;;;;;;66.07;23.85;;;3.60;99.90;;;;;;5013424;28;20021;-72
2020/12/11 02:05:28;;;;;;;68.05;25.60;;;3.80;99.90;;;;;;5031074;28;20025;-72
2020/12/11 02:07:55;;;;;;;67.60;27.08;;;3.80;99.90;;;;;;5012862;28;20124;-73
2020/12/11 02:10:21;;;;;;;76.70;27.40;;;3.70;99.90;;;;;;5013221;28;20030;-72
2020/12/11 02:12:46;;;;;;;69.47;25.58;;;3.60;99.90;;;;;;5013314;28;20512;-73
2020/12/11 02:15:12;;;;;;;76.30;25.92;;;3.50;99.90;;;;;;5013203;28;20022;-73
2020/12/11 02:17:37;;;;;;;71.97;25.90;;;3.50;99.90;;;;;;5030557;28;20112;-72
2020/12/11 02:20:04;;;;;;;68.72;25.75;;;3.60;99.90;;;;;;5030888;28;20395;-72
2020/12/11 02:22:29;;;;;;;72.80;25.60;;;3.60;99.90;;;;;;5030864;28;20024;-73
2020/12/11 02:24:55;;;;;;;59.70;22.73;;;3.50;99.90;;;;;;5029547;28;20025;-73
2020/12/11 02:27:20;;;;;;;63.80;25.23;;;3.50;99.90;;;;;;5012823;28;20025;-73
2020/12/11 02:29:46;;;;;;;63.65;24.88;;;3.50;99.90;;;;;;5030782;28;20022;-73
2020/12/11 02:32:14;;;;;;;61.70;24.58;;;3.40;99.90;;;;;;5030745;28;20029;-73
2020/12/11 02:34:41;;;;;;;58.00;24.30;;;3.40;99.90;;;;;;5031520;28;20014;-72
2020/12/11 02:37:07;;;;;;;60.95;24.52;;;3.30;99.90;;;;;;5034476;28;20025;-72
2020/12/11 02:39:32;;;;;;;58.65;23.83;;;3.30;99.90;;;;;;5034808;28;20399;-73
2020/12/11 02:41:58;;;;;;;64.68;24.02;;;3.20;99.90;;;;;;5017052;28;20025;-73
2020/12/11 02:44:23;;;;;;;64.15;25.27;;;3.20;99.90;;;;;;5034675;28;20079;-73
2020/12/11 02:46:49;;;;;;;61.80;25.67;;;3.20;99.90;;;;;;5034390;28;20029;-73
2020/12/11 02:49:15;;;;;;;59.05;22.80;;;3.20;99.90;;;;;;5034577;28;20026;-73
2020/12/11 02:51:40;;;;;;;56.78;23.67;;;3.20;99.90;;;;;;5034598;28;20064;-72
2020/12/11 02:54:06;;;;;;;56.05;23.02;;;3.30;99.90;;;;;;5034593;28;20479;-73
2020/12/11 02:56:31;;;;;;;49.58;21.23;;;3.40;99.90;;;;;;5034387;28;20530;-72
2020/12/11 02:58:57;;;;;;;46.85;20.98;;;3.30;99.90;;;;;;5034185;28;20387;-72
2020/12/11 03:01:25;;;;;;;55.55;22.80;;;3.30;99.90;;;;;;5034434;28;20036;-72
2020/12/11 03:03:51;;;;;;;50.15;21.13;;;3.50;99.90;;;;;;5016684;28;20025;-73
2020/12/11 03:06:16;;;;;;;46.78;21.45;;;3.50;99.90;;;;;;5034212;28;20022;-73
2020/12/11 03:08:42;;;;;;;49.28;21.02;;;3.50;99.90;;;;;;5034223;28;20060;-73
2020/12/11 03:11:07;;;;;;;47.47;20.48;;;3.40;99.90;;;;;;5034369;28;20506;-73
2020/12/11 03:13:33;;;;;;;49.95;20.20;;;3.30;99.90;;;;;;5016532;28;20411;-73
2020/12/11 03:15:58;;;;;;;40.03;17.63;;;3.20;99.90;;;;;;5033801;28;20026;-72
2020/12/11 03:18:24;;;;;;;45.97;19.45;;;3.20;99.90;;;;;;5033757;28;20033;-73
2020/12/11 03:20:49;;;;;;;51.72;20.83;;;3.10;99.90;;;;;;5032631;28;20036;-73
2020/12/11 03:23:15;;;;;;;56.15;21.70;;;3.10;99.90;;;;;;5016053;28;20450;-73
2020/12/11 03:25:40;;;;;;;59.58;25.77;;;3.00;99.90;;;;;;5016043;28;20056;-72
2020/12/11 03:28:06;;;;;;;53.25;23.83;;;3.00;99.90;;;;;;5015760;28;20108;-73
2020/12/11 03:30:31;;;;;;;54.53;23.60;;;3.00;99.90;;;;;;5016071;28;20033;-73
2020/12/11 03:32:57;;;;;;;51.88;22.17;;;3.00;99.90;;;;;;5015992;28;20503;-73
2020/12/11 03:35:22;;;;;;;43.92;20.42;;;3.00;99.90;;;;;;5016003;28;20033;-73
2020/12/11 03:37:48;;;;;;;45.05;19.08;;;3.00;99.90;;;;;;5015498;28;20446;-73
2020/12/11 03:40:14;;;;;;;49.90;20.20;;;3.00;99.90;;;;;;5015740;28;20025;-72
2020/12/11 03:42:39;;;;;;;44.58;19.38;;;3.00;99.90;;;;;;5015822;28;20025;-73
2020/12/11 03:45:05;;;;;;;38.13;16.75;;;3.00;99.90;;;;;;5033481;28;20105;-73
2020/12/11 03:47:31;;;;;;;37.40;16.83;;;3.10;99.90;;;;;;5032667;28;20057;-73
2020/12/11 03:49:58;;;;;;;43.30;18.63;;;3.00;99.90;;;;;;5015776;28;20075;-73
2020/12/11 03:52:28;;;;;;;40.92;17.20;;;3.00;99.90;;;;;;5015653;28;20033;-73
2020/12/11 03:54:53;;;;;;;41.30;16.63;;;3.00;99.90;;;;;;5015757;28;20499;-73
2020/12/11 03:57:18;;;;;;;39.88;16.65;;;3.00;99.90;;;;;;5015243;28;20033;-73
2020/12/11 03:59:44;;;;;;;37.75;17.58;;;3.00;99.90;;;;;;5015586;28;20025;-73
2020/12/11 04:02:12;;;;;;;40.65;18.10;;;3.00;99.90;;;;;;5015691;28;20025;-73
2020/12/11 04:04:44;;;;;;;42.08;19.17;;;3.00;99.90;;;;;;5014822;28;20018;-73
2020/12/11 04:07:10;;;;;;;43.67;18.58;;;3.00;99.90;;;;;;5015199;28;20033;-73
2020/12/11 04:09:37;;;;;;;41.78;17.90;;;3.10;99.90;;;;;;5015810;28;20379;-73
2020/12/11 04:12:03;;;;;;;43.92;18.63;;;3.10;99.90;;;;;;5015668;28;20036;-73
2020/12/11 04:14:28;;;;;;;48.65;20.67;;;3.10;99.90;;;;;;5033466;28;20387;-73
2020/12/11 04:16:54;;;;;;;45.83;19.58;;;3.10;99.90;;;;;;5033053;28;20041;-72
2020/12/11 04:19:20;;;;;;;48.15;20.48;;;3.10;99.90;;;;;;5033200;28;20115;-72
2020/12/11 04:21:49;;;;;;;44.72;17.55;;;3.00;99.90;;;;;;5033136;28;20049;-73
2020/12/11 04:24:15;;;;;;;48.83;19.63;;;3.10;99.90;;;;;;5015319;28;20029;-73
2020/12/11 04:26:41;;;;;;;41.95;18.65;;;3.20;99.90;;;;;;5032666;28;20029;-72
2020/12/11 04:29:06;;;;;;;48.00;20.60;;;3.10;99.90;;;;;;5032954;28;20029;-73
2020/12/11 04:31:32;;;;;;;45.13;20.23;;;3.10;99.90;;;;;;5032746;28;20068;-72
2020/12/11 04:33:57;;;;;;;45.60;18.38;;;3.10;99.90;;;;;;5032733;28;20087;-73
2020/12/11 04:36:23;;;;;;;46.53;18.42;;;3.10;99.90;;;;;;5032420;28;20079;-72
2020/12/11 04:38:48;;;;;;;39.55;17.38;;;3.10;99.90;;;;;;5032584;28;20181;-73
2020/12/11 04:41:15;;;;;;;39.90;17.75;;;3.40;99.90;;;;;;5032499;28;20478;-72
2020/12/11 04:43:41;;;;;;;39.58;17.60;;;3.40;99.90;;;;;;5032464;28;20028;-73
2020/12/11 04:46:07;;;;;;;41.42;18.13;;;3.30;99.90;;;;;;5014476;28;20044;-73
2020/12/11 04:48:34;;;;;;;37.03;16.67;;;3.30;99.90;;;;;;5014604;28;20029;-73
2020/12/11 04:51:02;;;;;;;36.22;16.27;;;3.40;99.90;;;;;;5032361;28;20463;-73
2020/12/11 04:53:33;;;;;;;36.70;16.77;;;3.30;99.90;;;;;;5014559;28;20038;-73
2020/12/11 04:56:01;;;;;;;36.70;17.50;;;3.20;99.90;;;;;;5032218;28;20032;-73
2020/12/11 04:58:28;;;;;;;35.70;15.90;;;3.20;99.90;;;;;;5013338;28;20022;-73
2020/12/11 05:00:55;;;;;;;39.50;16.23;;;3.10;99.90;;;;;;5032150;28;20025;-73
2020/12/11 05:03:22;;;;;;;33.85;14.52;;;3.10;99.90;;;;;;5014464;28;20028;-72
2020/12/11 05:05:48;;;;;;;32.72;13.85;;;3.10;99.90;;;;;;5031748;28;20512;-73
2020/12/11 05:08:18;;;;;;;30.42;15.07;;;3.20;99.90;;;;;;5010573;28;20065;-73
2020/12/11 05:10:45;;;;;;;;;;;3.50;99.90;;;;;;5012601;28;20512;-73
2020/12/11 05:13:18;;;;;;;29.17;12.82;;;3.60;99.90;;;;;;5014066;28;19916;-72
2020/12/11 05:16:04;;;;;;;30.92;12.48;;;3.40;99.90;;;;;;5031921;28;20021;-73
2020/12/11 05:18:29;;;;;;;51.03;20.33;;;3.30;99.90;;;;;;5013727;28;20074;-73
2020/12/11 05:21:16;;;;;;;31.83;13.70;;;3.20;99.90;;;;;;5014048;28;20084;-73
2020/12/11 05:24:01;;;;;;;32.60;13.57;;;3.20;99.90;;;;;;5013999;28;20029;-73
2020/12/11 05:26:28;;;;;;;31.70;15.77;;;3.10;99.90;;;;;;5013496;28;20403;-73
2020/12/11 05:28:54;;;;;;;29.63;13.95;;;3.10;99.90;;;;;;5032204;28;20030;-73
2020/12/11 05:31:19;;;;;;;29.20;12.68;;;3.10;99.90;;;;;;5014054;28;20592;-72
2020/12/11 05:34:07;;;;;;;26.85;12.18;;;3.10;99.90;;;;;;5031532;28;20025;-71
2020/12/11 05:36:49;;;;;;;39.22;16.10;;;3.10;99.90;;;;;;5031416;28;20092;-72
2020/12/11 05:39:30;;;;;;;27.52;12.57;;;3.20;99.90;;;;;;5031549;28;20502;-72
2020/12/11 05:41:56;;;;;;;27.67;13.35;;;3.10;99.90;;;;;;5031635;28;20026;-73
2020/12/11 05:44:32;;;;;;;33.55;15.30;;;3.20;99.90;;;;;;5013804;28;20075;-76
2020/12/11 05:47:15;;;;;;;33.70;14.95;;;3.20;99.90;;;;;;5031770;28;20049;-73
2020/12/11 05:49:41;;;;;;;24.65;11.95;;;3.10;99.90;;;;;;5012848;28;20025;-73
2020/12/11 05:52:12;;;;;;;23.55;10.45;;;3.10;99.90;;;;;;5014008;28;20392;-73
2020/12/11 05:54:43;;;;;;;25.67;12.30;;;3.20;99.90;;;;;;5031715;28;20021;-73
2020/12/11 05:57:10;;;;;;;23.65;11.05;;;3.20;99.90;;;;;;5014344;28;20022;-74
2020/12/11 05:59:36;;;;;;;21.90;11.55;;;3.20;99.90;;;;;;5015009;28;20033;-74
2020/12/11 06:02:02;;;;;;;21.70;10.70;;;3.20;99.90;;;;;;5032630;28;20029;-73
2020/12/11 06:04:28;;;;;;;21.60;11.25;;;3.20;99.90;;;;;;5031995;28;20388;-74
2020/12/11 06:06:57;;;;;;;24.88;10.88;;;3.20;99.90;;;;;;5032719;28;20060;-74
2020/12/11 06:09:34;;;;;;;35.25;15.45;;;3.30;99.90;;;;;;5021511;28;20062;-74
2020/12/11 06:12:01;;;;;;;50.55;20.95;;;3.30;99.90;;;;;;4994843;28;20033;-74
2020/12/11 06:15:01;;;;;;;46.40;20.10;;;3.20;99.90;;;;;;5020897;28;20571;-74
2020/12/11 06:17:31;;;;;;;27.52;13.57;;;3.20;99.90;;;;;;5013958;28;20035;-74
2020/12/11 06:19:59;;;;;;;26.90;13.53;;;3.20;99.90;;;;;;5014116;28;20372;-73
2020/12/11 06:22:25;;;;;;;26.58;12.75;;;3.20;99.90;;;;;;5013854;28;20024;-74
2020/12/11 06:24:50;;;;;;;27.33;12.98;;;3.20;99.90;;;;;;5030279;28;20025;-74
2020/12/11 06:27:29;;;;;;;22.95;11.93;;;3.20;99.90;;;;;;5013307;28;20060;-74
2020/12/11 06:29:54;;;;;;;26.85;12.32;;;3.20;99.90;;;;;;5013408;28;20025;-73
2020/12/11 06:32:31;;;;;;;25.77;14.65;;;3.20;99.90;;;;;;5031305;28;20076;-74
2020/12/11 06:35:13;;;;;;;25.40;11.70;;;3.20;99.90;;;;;;5013538;28;20022;-74
2020/12/11 06:37:40;;;;;;;23.10;11.70;;;3.30;99.90;;;;;;5014026;28;20034;-73
2020/12/11 06:40:07;;;;;;;26.02;11.88;;;3.30;99.90;;;;;;5014051;28;20026;-73
2020/12/11 06:42:35;;;;;;;38.63;23.30;;;3.20;99.90;;;;;;5014683;28;20029;-73
2020/12/11 06:45:21;;;;;;;30.88;16.63;;;3.30;99.90;;;;;;5014509;28;20116;-73
2020/12/11 06:47:55;;;;;;;45.13;21.92;;;3.30;99.90;;;;;;5014034;28;20483;-74
2020/12/11 06:50:24;;;;;;;24.08;10.40;;;3.30;99.90;;;;;;5014135;28;20075;-74
2020/12/11 06:52:50;;;;;;;27.00;11.43;;;3.30;99.90;;;;;;5013614;28;20025;-74
2020/12/11 06:55:15;;;;;;;24.15;13.23;;;3.30;99.90;;;;;;5014492;28;20491;-74
2020/12/11 06:57:43;;;;;;;23.58;11.18;;;3.30;99.90;;;;;;5015154;28;20025;-74
2020/12/11 07:00:30;;;;;;;21.20;9.63;;;3.30;99.90;;;;;;5033442;28;20043;-74
2020/12/11 07:03:14;;;;;;;25.92;10.52;;;3.30;99.90;;;;;;5014353;28;20025;-74
2020/12/11 07:05:40;;;;;;;24.80;11.55;;;3.20;99.90;;;;;;5032767;28;20423;-73
2020/12/11 07:08:13;;;;;;;24.40;12.10;;;3.20;99.90;;;;;;5070525;22;20041;-73
2020/12/11 07:10:39;;;;;;;25.10;12.90;;;3.30;99.90;;;;;;5070453;28;20017;-71
2020/12/11 07:13:09;;;;;;;35.17;15.23;;;3.30;99.90;;;;;;5069169;28;20069;-72
2020/12/11 07:15:36;;;;;;;77.55;31.67;;;3.30;99.90;;;;;;5070348;28;20574;-71
2020/12/11 07:18:02;;;;;;;28.00;11.98;;;3.20;99.90;;;;;;5069568;28;20039;-71
2020/12/11 07:20:28;;;;;;;28.60;13.98;;;3.20;99.90;;;;;;5070290;28;20112;-71
2020/12/11 07:22:59;;;;;;;26.25;14.43;;;3.30;99.90;;;;;;5054985;28;20166;-71
2020/12/11 07:25:27;;;;;;;27.30;12.98;;;3.30;99.90;;;;;;5073916;28;20035;-71
2020/12/11 07:28:00;;;;;;;21.80;11.15;;;3.20;99.90;;;;;;5055195;28;20024;-71
2020/12/11 07:30:26;;;;;;;26.15;11.18;;;3.10;99.90;;;;;;5074059;28;20024;-71
2020/12/11 07:32:55;;;;;;;24.13;13.88;;;3.10;99.90;;;;;;5073828;28;20490;-71
2020/12/11 07:35:22;;;;;;;26.50;15.63;;;3.30;99.90;;;;;;5073730;28;20048;-71
2020/12/11 07:37:55;;;;;;;25.30;12.80;;;3.40;99.90;;;;;;5072785;28;20031;-72
2020/12/11 07:40:22;;;;;;;26.42;13.63;;;3.60;99.90;;;;;;5055738;28;20021;-72
2020/12/11 07:42:49;;;;;;;20.58;10.70;;;3.40;99.90;;;;;;5060392;28;20170;-72
2020/12/11 07:45:31;;;;;;;19.67;10.30;;;3.30;99.90;;;;;;5049742;28;20029;-72
2020/12/11 07:47:57;;;;;;;19.63;10.32;;;3.30;99.90;;;;;;5072800;28;20390;-72
2020/12/11 07:50:24;;;;;;;21.23;9.98;;;3.20;99.90;;;;;;5073531;28;20024;-72
2020/12/11 07:52:51;;;;;;;24.30;13.23;;;3.20;99.90;;;;;;5073496;28;20103;-73
2020/12/11 07:55:18;;;;;;;23.27;12.18;;;3.20;99.90;;;;;;5073427;28;20028;-74
2020/12/11 07:57:58;;;;;;;25.10;15.65;;;3.30;99.90;;;;;;5051647;28;20410;-73
2020/12/11 08:00:25;;;;;;;26.75;13.50;;;3.30;99.90;;;;;;5035250;28;20025;-72
2020/12/11 08:02:55;;;;;;;20.88;11.32;;;3.30;99.90;;;;;;5052765;28;20025;-73
2020/12/11 08:05:22;;;;;;;19.33;11.20;;;3.30;99.90;;;;;;5052929;28;20510;-73
2020/12/11 08:07:53;;;;;;;18.98;11.10;;;3.20;99.90;;;;;;5033346;28;20056;-73
2020/12/11 08:10:22;;;;;;;18.58;10.60;;;3.20;99.90;;;;;;5035273;28;20025;-73
2020/12/11 08:12:49;;;;;;;22.65;12.45;;;3.20;99.90;;;;;;5053045;28;20025;-73
2020/12/11 08:15:31;;;;;;;22.42;12.70;;;3.20;99.90;;;;;;5052970;28;20024;-73
2020/12/11 08:18:07;;;;;;;23.15;11.77;;;3.30;99.90;;;;;;5052178;28;20032;-73
2020/12/11 08:20:51;;;;;;;24.20;13.65;;;3.40;99.90;;;;;;5052869;28;20123;-73
2020/12/11 08:23:39;;;;;;;22.02;12.27;;;3.40;99.90;;;;;;5035060;28;20023;-73
2020/12/11 08:26:07;;;;;;;22.55;11.07;;;3.40;99.90;;;;;;5034500;28;20044;-73
2020/12/11 08:28:33;;;;;;;28.58;14.90;;;3.40;99.90;;;;;;5052736;28;20029;-73
2020/12/11 08:31:15;;;;;;;29.92;13.35;;;3.50;99.90;;;;;;5052742;28;20092;-73
2020/12/11 08:33:41;;;;;;;21.83;10.98;;;3.50;99.90;;;;;;5034729;28;20024;-73
2020/12/11 08:36:26;;;;;;;20.73;11.55;;;3.60;99.90;;;;;;5034377;28;20475;-73
2020/12/11 08:39:10;;;;;;;20.77;11.23;;;3.60;99.90;;;;;;5052770;28;20352;-75
2020/12/11 08:41:41;;;;;;;20.38;12.45;;;3.70;99.90;;;;;;5034999;28;20025;-73
2020/12/11 08:44:21;;;;;;;22.73;12.35;;;3.80;99.90;;;;;;5052901;28;20090;-73
2020/12/11 08:49:22;;;;;;;21.45;12.02;;;3.80;99.90;;;;;;5052591;28;20021;-73
2020/12/11 08:51:47;;;;;;;19.75;11.32;;;3.80;99.90;;;;;;5034626;28;20495;-73
2020/12/11 08:54:14;;;;;;;20.48;11.55;;;3.90;99.50;;;;;;5052489;28;20029;-73
2020/12/11 08:56:45;;;;;;;19.25;11.02;;;3.90;99.80;;;;;;5033973;28;20029;-74
2020/12/11 08:59:11;;;;;;;17.50;11.10;;;3.90;99.90;;;;;;5052064;28;20032;-74
2020/12/11 09:01:40;;;;;;;18.45;10.73;;;3.80;99.00;;;;;;5052969;28;20107;-72
2020/12/11 09:04:06;;;;;;;18.77;10.85;;;3.90;98.80;;;;;;5034256;28;20559;-72
2020/12/11 09:06:31;;;;;;;20.10;11.38;;;3.90;99.00;;;;;;5033515;28;20051;-71
2020/12/11 09:08:57;;;;;;;19.60;11.32;;;3.90;98.70;;;;;;5051794;28;20055;-71
2020/12/11 09:11:22;;;;;;;20.58;10.90;;;3.90;98.60;;;;;;5061135;28;20386;-71
2020/12/11 09:13:48;;;;;;;19.15;11.20;;;3.90;98.80;;;;;;5053845;28;20024;-72
2020/12/11 09:16:13;;;;;;;20.23;11.23;;;4.00;99.00;;;;;;5067996;28;20044;-73
2020/12/11 09:18:39;;;;;;;18.77;10.43;;;4.00;99.60;;;;;;5053661;28;20029;-73
2020/12/11 09:21:04;;;;;;;18.92;11.18;;;4.00;97.90;;;;;;5033601;28;20013;-73
2020/12/11 09:23:30;;;;;;;20.67;11.50;;;4.00;97.70;;;;;;5051654;28;20017;-73
2020/12/11 09:25:55;;;;;;;20.80;11.82;;;3.90;98.40;;;;;;5051526;28;20021;-72
2020/12/11 09:28:22;;;;;;;19.70;11.55;;;3.90;99.20;;;;;;5050943;28;20029;-73
2020/12/11 09:30:48;;;;;;;20.90;11.43;;;3.90;99.30;;;;;;5051574;28;20448;-73
2020/12/11 09:35:39;;;;;;;23.08;13.13;;;3.90;99.00;;;;;;5051479;28;20025;-72
2020/12/11 09:38:05;;;;;;;20.50;12.00;;;3.90;98.70;;;;;;5050618;28;20479;-72
2020/12/11 09:45:46;;;;;;;21.30;11.85;;;3.80;99.00;;;;;;5054455;28;20104;-72
2020/12/11 09:51:03;;;;;;;19.17;10.95;;;3.90;98.10;;;;;;5067643;28;20033;-73
2020/12/11 09:53:47;;;;;;;19.73;11.50;;;3.90;98.80;;;;;;5042992;28;20161;-72
2020/12/11 09:56:23;;;;;;;20.58;11.30;;;3.90;99.70;;;;;;5041476;28;20051;-72
2020/12/11 09:58:52;;;;;;;23.55;12.60;;;3.90;99.20;;;;;;5042733;28;20391;-72
2020/12/11 10:01:24;;;;;;;19.17;10.93;;;3.90;99.50;;;;;;5033096;28;20021;-72
2020/12/11 10:03:53;;;;;;;29.48;17.55;;;3.90;98.60;;;;;;5050998;28;20020;-72
2020/12/11 10:06:23;;;;;;;24.30;13.43;;;3.90;99.40;;;;;;5049498;28;20029;-73
2020/12/11 10:08:48;;;;;;;22.30;12.32;;;3.90;98.90;;;;;;5050708;28;20290;-72
2020/12/11 10:11:21;;;;;;;22.83;12.13;;;3.80;98.30;;;;;;5033001;28;20036;-72
2020/12/11 10:13:49;;;;;;;19.55;11.82;;;3.90;98.80;;;;;;5050732;28;20432;-72
2020/12/11 10:16:16;;;;;;;20.75;11.85;;;4.10;98.00;;;;;;5050641;28;20383;-72
2020/12/11 10:18:42;;;;;;;19.45;10.82;;;4.10;97.60;;;;;;5051862;28;20025;-72
2020/12/11 10:21:12;;;;;;;22.50;12.13;;;4.00;98.50;;;;;;5032664;28;20155;-72
2020/12/11 10:23:38;;;;;;;23.80;12.25;;;4.00;98.90;;;;;;5050750;28;20024;-72
2020/12/11 10:26:04;;;;;;;21.83;11.73;;;3.90;98.20;;;;;;5050600;28;20079;-71
2020/12/11 10:28:31;;;;;;;23.67;12.45;;;4.00;98.70;;;;;;5070024;28;20031;-72
2020/12/11 10:30:57;;;;;;;21.70;11.30;;;4.00;98.30;;;;;;5070804;28;20028;-72
2020/12/11 10:33:22;;;;;;;20.10;11.32;;;4.20;97.30;;;;;;5070745;28;20166;-72
2020/12/11 10:35:48;;;;;;;22.15;11.23;;;4.10;97.30;;;;;;5052787;28;20376;-72
2020/12/11 10:38:13;;;;;;;19.63;11.68;;;4.00;97.90;;;;;;5070379;28;20101;-72
2020/12/11 10:40:39;;;;;;;22.80;11.18;;;3.90;96.80;;;;;;5052839;28;20025;-73
2020/12/11 10:43:04;;;;;;;30.00;14.85;;;3.90;97.40;;;;;;5070802;28;20028;-72
2020/12/11 10:45:30;;;;;;;22.85;11.90;;;4.00;97.40;;;;;;5070780;28;20020;-72
2020/12/11 10:47:55;;;;;;;21.27;11.55;;;4.00;96.90;;;;;;5052468;28;20021;-72
2020/12/11 10:50:21;;;;;;;21.60;11.23;;;4.00;97.50;;;;;;5070887;28;20024;-72
2020/12/11 10:52:46;;;;;;;22.08;11.70;;;3.90;96.50;;;;;;5070929;28;20385;-72
2020/12/11 10:55:12;;;;;;;20.52;11.13;;;3.90;97.50;;;;;;5070611;28;20506;-72
2020/12/11 10:57:38;;;;;;;20.17;11.63;;;4.00;97.20;;;;;;5072641;28;20025;-72
2020/12/11 11:00:03;;;;;;;21.27;11.15;;;4.00;97.00;;;;;;5074393;28;20025;-72
2020/12/11 11:02:29;;;;;;;21.85;10.93;;;4.00;97.00;;;;;;5074056;28;20021;-72
2020/12/11 11:04:55;;;;;;;22.17;11.70;;;4.00;96.80;;;;;;5074350;28;20062;-73
2020/12/11 11:07:26;;;;;;;23.10;11.18;;;4.10;97.40;;;;;;5055875;28;20359;-73
2020/12/11 11:10:04;;;;;;;24.42;12.52;;;4.00;96.60;;;;;;5074252;28;20023;-72
2020/12/11 11:12:37;;;;;;;22.88;11.68;;;4.10;97.40;;;;;;5074225;28;20589;-73
2020/12/11 11:18:04;;;;;;;22.67;11.88;;;4.10;97.00;;;;;;5073693;28;20025;-72
2020/12/11 11:28:17;;;;;;;23.15;12.70;;;4.20;96.70;;;;;;5073890;28;20025;-73
2020/12/11 11:30:42;;;;;;;21.95;11.75;;;4.10;96.90;;;;;;5055817;28;20032;-72
2020/12/11 11:33:08;;;;;;;23.45;11.55;;;4.10;97.50;;;;;;5073782;28;20073;-73
2020/12/11 11:35:33;;;;;;;23.10;12.20;;;4.10;97.60;;;;;;5073640;28;20073;-73
2020/12/11 11:38:01;;;;;;;18.00;10.82;;;4.10;96.90;;;;;;5055348;28;20074;-73
2020/12/11 11:40:26;;;;;;;22.15;11.13;;;4.20;96.60;;;;;;5055952;28;20463;-73
2020/12/11 11:42:52;;;;;;;22.20;11.95;;;4.10;96.40;;;;;;5073627;28;20108;-73
2020/12/11 11:45:20;;;;;;;21.83;12.15;;;4.10;96.00;;;;;;5073590;28;20025;-73
2020/12/11 11:47:51;;;;;;;22.80;11.40;;;4.00;96.40;;;;;;5055207;28;20021;-73
2020/12/11 11:52:57;;;;;;;22.40;10.93;;;4.10;96.30;;;;;;5073528;28;20420;-73
2020/12/11 11:55:23;;;;;;;21.15;10.98;;;4.00;96.00;;;;;;5073427;28;20039;-73
2020/12/11 11:57:48;;;;;;;24.63;11.18;;;4.00;96.80;;;;;;5054932;28;20474;-73
2020/12/11 12:00:14;;;;;;;21.42;11.38;;;4.00;97.10;;;;;;5055293;28;20020;-74
2020/12/11 12:02:39;;;;;;;20.58;10.70;;;4.10;96.60;;;;;;5073273;28;20020;-73
2020/12/11 12:05:10;;;;;;;23.60;11.27;;;4.10;95.80;;;;;;5055283;28;20025;-73
2020/12/11 12:07:37;;;;;;;20.08;10.73;;;4.00;96.20;;;;;;5072343;28;20052;-73
2020/12/11 12:10:04;;;;;;;28.83;17.20;;;4.10;96.30;;;;;;5073232;28;20044;-74
2020/12/11 12:12:30;;;;;;;19.65;10.93;;;4.10;95.70;;;;;;5073078;28;20029;-73
2020/12/11 12:14:55;;;;;;;18.48;9.32;;;4.00;95.90;;;;;;5073074;28;20099;-73
2020/12/11 12:17:31;;;;;;;21.05;10.95;;;4.10;95.90;;;;;;5054774;28;20021;-73
2020/12/11 12:20:01;;;;;;;23.88;11.10;;;4.10;95.20;;;;;;5072949;28;20021;-74
2020/12/11 12:23:33;;;;;;;18.30;9.52;;;4.10;95.90;;;;;;5072926;28;20055;-73
2020/12/11 12:30:27;;;;;;;17.35;9.75;;;4.00;95.30;;;;;;5073116;28;20633;-73
2020/12/11 12:33:34;;;;;;;18.75;10.48;;;4.00;94.90;;;;;;5072847;28;20097;-74
2020/12/11 12:36:07;;;;;;;18.88;10.23;;;4.10;96.10;;;;;;5072518;28;20085;-73
2020/12/11 12:43:55;;;;;;;19.40;10.05;;;4.30;95.30;;;;;;5072823;28;20082;-74
2020/12/11 12:46:21;;;;;;;17.80;10.07;;;4.30;93.90;;;;;;5054306;28;20028;-73
2020/12/11 12:48:46;;;;;;;19.90;10.02;;;4.30;95.30;;;;;;5054443;28;20402;-74
2020/12/11 12:51:12;;;;;;;20.50;9.45;;;4.30;95.00;;;;;;5072475;28;20024;-73
2020/12/11 12:53:37;;;;;;;17.23;9.07;;;4.30;95.40;;;;;;5072358;28;20033;-73
2020/12/11 12:59:00;;;;;;;17.90;9.32;;;4.40;94.40;;;;;;5072215;28;20119;-74
2020/12/11 13:04:22;;;;;;;18.55;9.32;;;4.30;94.50;;;;;;5072401;28;20044;-74
2020/12/11 13:06:48;;;;;;;17.38;9.57;;;4.30;94.90;;;;;;5066860;28;20074;-73
2020/12/11 13:09:14;;;;;;;16.92;9.70;;;4.30;94.60;;;;;;5045439;22;20041;-73
2020/12/11 13:11:40;;;;;;;15.52;9.40;;;4.40;94.00;;;;;;5008608;28;20029;-75
2020/12/11 13:14:06;;;;;;;18.65;10.43;;;4.40;94.40;;;;;;4994742;28;20014;-75
2020/12/11 13:16:31;;;;;;;22.48;9.75;;;4.50;93.70;;;;;;4994018;28;20026;-74
2020/12/11 13:18:57;;;;;;;18.25;10.73;;;4.60;93.60;;;;;;5011440;28;20069;-75
2020/12/11 13:21:29;;;;;;;17.60;9.40;;;4.60;94.30;;;;;;5011920;28;20103;-74
2020/12/11 13:26:53;;;;;;;19.67;10.30;;;4.60;93.90;;;;;;5011427;28;20057;-74
2020/12/11 13:29:19;;;;;;;19.73;10.32;;;4.70;93.30;;;;;;5011854;28;20031;-75